createdAt,value
2023-03-02T00:01:44.242Z,101172.88
2023-03-02T00:04:17.617Z,101169.41
2023-03-02T00:06:45.895Z,101174.90
2023-03-02T00:09:13.665Z,101173.88
2023-03-02T00:11:41.508Z,101175.72
2023-03-02T00:14:09.278Z,101171.77
2023-03-02T00:16:37.176Z,101170.39
2023-03-02T00:19:05.138Z,101167.67
2023-03-02T00:21:32.988Z,101171.25
2023-03-02T00:24:00.813Z,101168.77
2023-03-02T00:26:28.910Z,101170.34
2023-03-02T00:28:56.770Z,101169.20
2023-03-02T00:31:24.797Z,101166.52
2023-03-02T00:33:54.493Z,101169.02
2023-03-02T00:36:23.198Z,101165.64
2023-03-02T00:38:54.672Z,101162.54
2023-03-02T00:41:22.589Z,101165.04
2023-03-02T00:43:51.169Z,101166.34
2023-03-02T00:46:21.031Z,101170.66
2023-03-02T00:48:50.031Z,101170.39
2023-03-02T00:51:18.301Z,101167.11
2023-03-02T00:53:46.432Z,101161.08
2023-03-02T00:56:14.209Z,101156.71
2023-03-02T00:58:44.604Z,101157.05
2023-03-02T01:01:13.960Z,101154.35
2023-03-02T01:03:47.138Z,101149.22
2023-03-02T01:06:17.829Z,101146.50
2023-03-02T01:08:45.976Z,101144.78
2023-03-02T01:11:21.140Z,101143.56
2023-03-02T01:13:50.283Z,101137.85
2023-03-02T01:16:18.556Z,101132.52
2023-03-02T01:18:46.802Z,101129.40
2023-03-02T01:21:16.160Z,101124.21
2023-03-02T01:23:44.290Z,101127.08
2023-03-02T01:26:12.547Z,101125.73
2023-03-02T01:28:40.330Z,101125.92
2023-03-02T01:31:08.461Z,101118.98
2023-03-02T01:33:36.437Z,101113.61
2023-03-02T01:36:05.897Z,101111.43
2023-03-02T01:38:33.880Z,101108.42
2023-03-02T01:41:01.787Z,101105.09
2023-03-02T01:43:29.781Z,101105.33
2023-03-02T01:46:12.690Z,101099.00
2023-03-02T01:49:07.519Z,101097.14
2023-03-02T01:51:46.317Z,101094.42
2023-03-02T01:54:22.988Z,101092.95
2023-03-02T01:56:58.282Z,101091.57
2023-03-02T01:59:28.599Z,101090.63
2023-03-02T02:01:59.218Z,101088.46
2023-03-02T02:04:29.300Z,101086.84
2023-03-02T02:07:02.112Z,101084.90
2023-03-02T02:09:48.188Z,101080.50
2023-03-02T02:12:21.714Z,101077.66
2023-03-02T02:14:50.084Z,101080.42
2023-03-02T02:17:18.715Z,101079.15
2023-03-02T02:20:20.599Z,101073.33
2023-03-02T02:22:57.547Z,101069.94
2023-03-02T02:25:58.118Z,101069.41
2023-03-02T02:28:30.526Z,101066.34
2023-03-02T02:31:17.296Z,101066.31
2023-03-02T02:33:49.854Z,101067.83
2023-03-02T02:36:21.879Z,101066.55
2023-03-02T02:38:50.332Z,101068.23
2023-03-02T02:41:22.962Z,101070.60
2023-03-02T02:43:51.616Z,101072.25
2023-03-02T02:46:19.515Z,101072.09
2023-03-02T02:48:47.378Z,101073.10
2023-03-02T02:51:18.966Z,101071.94
2023-03-02T02:54:01.574Z,101075.03
2023-03-02T02:56:39.824Z,101074.86
2023-03-02T02:59:17.550Z,101069.19
2023-03-02T03:01:46.911Z,101066.35
2023-03-02T03:04:19.449Z,101065.48
2023-03-02T03:06:55.967Z,101063.02
2023-03-02T03:09:24.490Z,101054.80
2023-03-02T03:12:14.549Z,101053.58
2023-03-02T03:14:42.872Z,101053.04
2023-03-02T03:17:13.787Z,101050.31
2023-03-02T03:19:47.663Z,101049.76
2023-03-02T03:22:16.768Z,101044.72
2023-03-02T03:24:45.814Z,101051.33
2023-03-02T03:27:15.652Z,101047.83
2023-03-02T03:29:48.063Z,101048.27
2023-03-02T03:32:17.916Z,101046.09
2023-03-02T03:34:46.402Z,101043.42
2023-03-02T03:37:20.766Z,101045.76
2023-03-02T03:39:48.788Z,101047.05
2023-03-02T03:42:17.085Z,101048.34
2023-03-02T03:44:45.401Z,101050.98
2023-03-02T03:47:13.305Z,101046.42
2023-03-02T03:49:41.534Z,101042.77
2023-03-02T03:52:10.002Z,101044.23
2023-03-02T03:54:37.888Z,101045.20
2023-03-02T03:57:06.577Z,101041.13
2023-03-02T03:59:34.367Z,101040.76
2023-03-02T04:02:03.512Z,101038.46
2023-03-02T04:04:40.327Z,101037.67
2023-03-02T04:07:18.588Z,101036.61
2023-03-02T04:09:47.284Z,101037.35
2023-03-02T04:12:16.215Z,101036.81
2023-03-02T04:14:48.432Z,101038.12
2023-03-02T04:17:16.746Z,101036.75
2023-03-02T04:19:47.330Z,101033.46
2023-03-02T04:22:16.927Z,101030.77
2023-03-02T04:24:45.414Z,101028.80
2023-03-02T04:27:14.162Z,101031.08
2023-03-02T04:29:43.893Z,101035.64
2023-03-02T04:32:15.370Z,101035.50
2023-03-02T04:34:46.094Z,101035.58
2023-03-02T04:37:15.956Z,101036.88
2023-03-02T04:39:47.384Z,101031.71
2023-03-02T04:42:15.155Z,101035.20
2023-03-02T04:44:42.975Z,101033.69
2023-03-02T04:47:11.039Z,101030.70
2023-03-02T04:49:39.042Z,101029.29
2023-03-02T04:52:06.917Z,101028.97
2023-03-02T04:54:34.960Z,101029.34
2023-03-02T04:57:02.765Z,101027.43
2023-03-02T04:59:30.640Z,101026.45
2023-03-02T05:02:00.091Z,101031.16
2023-03-02T05:04:29.168Z,101023.84
2023-03-02T05:06:57.812Z,101024.89
2023-03-02T05:09:28.766Z,101023.41
2023-03-02T05:11:58.575Z,101021.90
2023-03-02T05:14:26.870Z,101022.05
2023-03-02T05:16:55.517Z,101019.56
2023-03-02T05:19:23.366Z,101019.42
2023-03-02T05:21:51.692Z,101022.81
2023-03-02T05:24:19.584Z,101017.95
2023-03-02T05:26:47.346Z,101020.06
2023-03-02T05:29:15.211Z,101020.08
2023-03-02T05:31:44.826Z,101016.77
2023-03-02T05:34:16.097Z,101014.92
2023-03-02T05:36:45.452Z,101012.92
2023-03-02T05:39:13.882Z,101016.48
2023-03-02T05:41:42.485Z,101020.69
2023-03-02T05:44:12.112Z,101020.80
2023-03-02T05:46:40.108Z,101026.33
2023-03-02T05:49:08.042Z,101027.33
2023-03-02T05:51:35.944Z,101027.63
2023-03-02T05:54:03.944Z,101031.21
2023-03-02T05:56:32.195Z,101030.00
2023-03-02T05:59:00.174Z,101031.02
2023-03-02T06:01:27.924Z,101033.36
2023-03-02T06:03:56.013Z,101033.20
2023-03-02T06:06:23.801Z,101038.71
2023-03-02T06:08:51.651Z,101041.72
2023-03-02T06:11:21.805Z,101039.31
2023-03-02T06:13:49.619Z,101039.75
2023-03-02T06:16:17.473Z,101043.63
2023-03-02T06:18:45.400Z,101046.58
2023-03-02T06:21:13.138Z,101037.81
2023-03-02T06:23:40.887Z,101042.59
2023-03-02T06:26:12.441Z,101047.73
2023-03-02T06:28:52.080Z,101049.86
2023-03-02T06:31:21.893Z,101048.55
2023-03-02T06:33:49.880Z,101048.98
2023-03-02T06:36:18.227Z,101055.85
2023-03-02T06:38:48.286Z,101051.31
2023-03-02T06:41:16.385Z,101050.23
2023-03-02T06:43:44.426Z,101054.77
2023-03-02T06:46:12.544Z,101056.83
2023-03-02T06:48:40.383Z,101057.92
2023-03-02T06:51:08.408Z,101057.04
2023-03-02T06:53:36.227Z,101060.94
2023-03-02T06:56:04.492Z,101063.27
2023-03-02T06:58:32.501Z,101064.42
2023-03-02T07:01:00.325Z,101059.75
2023-03-02T07:03:28.253Z,101062.14
2023-03-02T07:05:56.221Z,101057.48
2023-03-02T07:08:24.111Z,101055.95
2023-03-02T07:10:52.011Z,101047.72
2023-03-02T07:13:20.229Z,101046.59
2023-03-02T07:15:48.059Z,101048.30
2023-03-02T07:18:15.989Z,101049.69
2023-03-02T07:20:43.829Z,101052.82
2023-03-02T07:23:11.820Z,101050.06
2023-03-02T07:25:39.540Z,101048.60
2023-03-02T07:28:07.433Z,101052.26
2023-03-02T07:30:35.206Z,101048.38
2023-03-02T07:33:03.171Z,101054.98
2023-03-02T07:35:31.080Z,101050.43
2023-03-02T07:37:59.064Z,101048.21
2023-03-02T07:40:27.033Z,101044.80
2023-03-02T07:42:54.788Z,101041.98
2023-03-02T07:45:24.918Z,101042.96
2023-03-02T07:47:52.811Z,101045.30
2023-03-02T07:50:21.061Z,101044.19
2023-03-02T07:52:48.932Z,101046.94
2023-03-02T07:55:16.925Z,101041.78
2023-03-02T07:57:50.950Z,101044.89
2023-03-02T08:00:19.490Z,101044.73
2023-03-02T08:02:47.633Z,101051.07
2023-03-02T08:05:15.810Z,101044.09
2023-03-02T08:07:44.136Z,101044.38
2023-03-02T08:10:12.445Z,101048.17
2023-03-02T08:12:40.436Z,101049.80
2023-03-02T08:15:09.286Z,101047.55
2023-03-02T08:17:37.313Z,101042.80
2023-03-02T08:20:06.702Z,101044.39
2023-03-02T08:22:34.838Z,101046.14
2023-03-02T08:25:03.001Z,101048.61
2023-03-02T08:27:31.129Z,101045.69
2023-03-02T08:29:58.963Z,101044.46
2023-03-02T08:32:26.858Z,101043.48
2023-03-02T08:34:54.765Z,101043.27
2023-03-02T08:37:22.594Z,101040.29
2023-03-02T08:39:51.747Z,101040.84
2023-03-02T08:42:19.500Z,101041.64
2023-03-02T08:44:47.264Z,101040.64
2023-03-02T08:47:15.124Z,101032.80
2023-03-02T08:49:42.989Z,101034.13
2023-03-02T08:52:10.883Z,101031.95
2023-03-02T08:54:40.659Z,101034.77
2023-03-02T08:57:11.522Z,101026.24
2023-03-02T08:59:39.578Z,101024.00
2023-03-02T14:02:37.320Z,100727.16
2023-03-02T14:05:06.658Z,100726.13
2023-03-02T14:07:34.745Z,100721.17
2023-03-02T14:10:02.524Z,100719.20
2023-03-02T14:12:32.933Z,100716.16
2023-03-02T14:15:03.918Z,100715.02
2023-03-02T14:17:31.748Z,100713.31
2023-03-02T14:19:59.547Z,100708.54
2023-03-02T14:22:29.740Z,100706.29
2023-03-02T14:24:57.954Z,100703.79
2023-03-02T14:27:29.748Z,100696.95
2023-03-02T14:29:57.582Z,100689.09
2023-03-02T14:32:25.613Z,100688.31
2023-03-02T14:34:53.526Z,100690.72
2023-03-02T14:37:25.923Z,100689.41
2023-03-02T14:39:56.831Z,100685.08
2023-03-02T14:42:24.693Z,100686.34
2023-03-02T14:44:52.863Z,100685.38
2023-03-02T14:47:21.832Z,100679.69
2023-03-02T14:49:50.292Z,100680.41
2023-03-02T14:52:32.339Z,100678.71
2023-03-02T14:55:01.004Z,100675.96
2023-03-02T14:57:29.921Z,100674.48
2023-03-02T14:59:59.972Z,100676.14
2023-03-02T15:02:27.897Z,100673.11
2023-03-02T15:04:57.393Z,100672.14
2023-03-02T15:07:28.106Z,100670.73
2023-03-02T15:09:56.917Z,100669.50
2023-03-02T15:12:25.368Z,100664.42
2023-03-02T15:14:53.112Z,100665.61
2023-03-02T15:17:21.037Z,100663.94
2023-03-02T15:19:48.853Z,100669.85
2023-03-02T15:22:16.694Z,100669.15
2023-03-02T15:24:44.473Z,100672.02
2023-03-02T15:27:12.305Z,100674.07
2023-03-02T15:29:44.160Z,100681.84
2023-03-02T15:32:12.437Z,100683.23
2023-03-02T15:34:40.375Z,100680.63
2023-03-02T15:37:11.412Z,100679.67
2023-03-02T15:39:39.870Z,100676.61
2023-03-02T15:42:07.703Z,100683.09
2023-03-02T15:44:35.484Z,100683.53
2023-03-02T15:47:03.552Z,100690.91
2023-03-02T15:49:32.870Z,100687.93
2023-03-02T15:52:00.944Z,100688.06
2023-03-02T15:54:29.357Z,100685.52
2023-03-02T15:56:57.466Z,100688.26
2023-03-02T15:59:28.129Z,100685.02
2023-03-02T16:01:59.601Z,100685.48
2023-03-02T16:04:28.399Z,100686.28
2023-03-02T16:06:57.691Z,100685.45
2023-03-02T16:09:26.738Z,100683.08
2023-03-02T16:11:56.003Z,100682.71
2023-03-02T16:14:24.240Z,100686.98
2023-03-02T16:16:52.225Z,100689.31
2023-03-02T16:19:20.404Z,100689.39
2023-03-02T16:21:48.476Z,100691.36
2023-03-02T16:24:17.181Z,100693.17
2023-03-02T16:26:45.987Z,100697.39
2023-03-02T16:29:14.303Z,100695.90
2023-03-02T16:31:46.471Z,100700.18
2023-03-02T16:34:14.674Z,100702.13
2023-03-02T16:36:42.726Z,100698.70
2023-03-02T16:39:13.271Z,100704.52
2023-03-02T16:41:43.027Z,100707.17
2023-03-02T16:44:14.569Z,100700.94
2023-03-02T16:46:43.578Z,100703.26
2023-03-02T16:49:12.814Z,100702.33
2023-03-02T16:51:41.653Z,100708.49
2023-03-02T16:54:10.556Z,100710.65
2023-03-02T16:56:39.704Z,100716.04
2023-03-02T16:59:07.516Z,100718.13
2023-03-02T17:01:35.305Z,100716.67
2023-03-02T17:04:05.815Z,100711.91
2023-03-02T17:06:33.973Z,100717.46
2023-03-02T17:09:01.860Z,100717.48
2023-03-02T17:11:31.722Z,100720.38
2023-03-02T17:13:59.707Z,100717.41
2023-03-02T17:16:27.809Z,100727.58
2023-03-02T17:18:55.784Z,100727.23
2023-03-02T17:21:24.505Z,100729.52
2023-03-02T17:23:52.345Z,100729.54
2023-03-02T17:26:21.220Z,100726.98
2023-03-02T17:28:49.034Z,100726.08
2023-03-02T17:31:16.860Z,100731.09
2023-03-02T17:33:44.722Z,100734.80
2023-03-02T17:36:12.610Z,100733.08
2023-03-02T17:38:40.647Z,100736.14
2023-03-02T17:41:10.453Z,100735.44
2023-03-02T17:43:40.443Z,100736.39
2023-03-02T17:46:25.539Z,100739.98
2023-03-02T17:48:55.952Z,100738.45
2023-03-02T17:51:25.082Z,100739.69
2023-03-02T17:53:54.558Z,100741.80
2023-03-02T17:56:27.774Z,100741.23
2023-03-02T17:58:57.911Z,100737.42
2023-03-02T18:01:26.575Z,100739.59
2023-03-02T18:03:54.825Z,100742.52
2023-03-02T18:06:23.171Z,100742.45
2023-03-02T18:08:51.869Z,100746.62
2023-03-02T18:11:21.979Z,100747.00
2023-03-02T18:13:49.975Z,100743.56
2023-03-02T18:16:17.814Z,100749.42
2023-03-02T18:18:45.674Z,100749.69
2023-03-02T18:21:13.657Z,100743.55
2023-03-02T18:23:42.139Z,100748.44
2023-03-02T18:26:10.140Z,100753.89
2023-03-02T18:28:38.393Z,100758.80
2023-03-02T18:31:07.610Z,100758.71
2023-03-02T18:33:35.599Z,100760.27
2023-03-02T18:36:05.527Z,100763.65
2023-03-02T18:38:34.788Z,100762.42
2023-03-02T18:41:05.104Z,100762.90
2023-03-02T18:43:34.908Z,100765.65
2023-03-02T18:46:04.317Z,100767.33
2023-03-02T18:48:33.086Z,100762.81
2023-03-02T18:51:00.928Z,100763.97
2023-03-02T18:53:28.787Z,100759.38
2023-03-02T18:55:56.884Z,100766.05
2023-03-02T18:58:25.584Z,100766.46
2023-03-02T19:00:54.521Z,100766.35
2023-03-02T19:03:24.891Z,100768.14
2023-03-02T19:05:53.481Z,100769.95
2023-03-02T19:08:23.491Z,100766.86
2023-03-02T19:10:52.233Z,100765.34
2023-03-02T19:13:20.695Z,100768.77
2023-03-02T19:15:48.620Z,100767.79
2023-03-02T19:18:18.157Z,100770.96
2023-03-02T19:20:47.076Z,100770.41
2023-03-02T19:23:16.254Z,100765.42
2023-03-02T19:25:44.644Z,100769.11
2023-03-02T19:28:12.545Z,100767.75
2023-03-02T19:30:40.560Z,100759.46
2023-03-02T19:33:09.946Z,100765.58
2023-03-02T19:35:42.247Z,100768.27
2023-03-02T19:38:10.818Z,100766.39
2023-03-02T19:40:38.901Z,100771.88
2023-03-02T19:43:06.903Z,100770.84
2023-03-02T19:45:35.802Z,100771.70
2023-03-02T19:48:08.625Z,100770.04
2023-03-02T19:50:37.222Z,100768.80
2023-03-02T19:53:05.738Z,100770.35
2023-03-02T19:55:35.127Z,100767.71
2023-03-02T19:58:05.474Z,100776.67
2023-03-02T20:00:36.448Z,100782.52
2023-03-02T20:03:09.095Z,100777.13
2023-03-02T20:05:37.715Z,100776.77
2023-03-02T20:08:07.191Z,100772.85
2023-03-02T20:10:40.371Z,100774.75
2023-03-02T20:13:09.978Z,100770.90
2023-03-02T20:15:44.971Z,100774.03
2023-03-02T20:18:20.320Z,100772.53
2023-03-02T20:20:48.804Z,100772.83
2023-03-02T20:23:19.323Z,100774.91
2023-03-02T20:25:48.632Z,100774.11
2023-03-02T20:28:21.527Z,100777.75
2023-03-02T20:30:58.640Z,100771.21
2023-03-02T20:33:39.567Z,100768.02
2023-03-02T20:36:13.258Z,100771.32
2023-03-02T20:38:52.378Z,100770.89
2023-03-02T20:41:20.569Z,100773.17
2023-03-02T20:43:48.746Z,100772.97
2023-03-02T20:46:24.491Z,100769.99
2023-03-02T20:48:54.701Z,100765.67
2023-03-02T20:51:23.279Z,100764.21
2023-03-02T20:53:52.003Z,100757.64
2023-03-02T20:56:20.700Z,100754.90
2023-03-02T20:58:49.540Z,100752.56
2023-03-02T21:01:19.537Z,100754.83
2023-03-02T21:03:47.466Z,100753.67
2023-03-02T21:06:15.548Z,100754.13
2023-03-02T21:08:44.804Z,100752.84
2023-03-02T21:11:19.306Z,100748.81
2023-03-02T21:13:48.223Z,100748.31
2023-03-02T21:16:21.016Z,100750.67
2023-03-02T21:18:48.786Z,100756.17
2023-03-02T21:21:20.181Z,100753.56
2023-03-02T21:23:50.848Z,100750.69
2023-03-02T21:26:19.721Z,100751.48
2023-03-02T21:28:48.388Z,100747.75
2023-03-02T21:31:21.527Z,100744.77
2023-03-02T21:33:51.688Z,100751.21
2023-03-02T21:36:23.480Z,100745.11
2023-03-02T21:38:52.109Z,100740.13
2023-03-02T21:41:19.993Z,100736.15
2023-03-02T21:43:48.541Z,100734.44
2023-03-02T21:46:19.572Z,100735.98
2023-03-02T21:48:48.900Z,100732.92
2023-03-02T21:51:17.025Z,100731.34
2023-03-02T21:53:44.799Z,100737.89
2023-03-02T21:56:20.816Z,100729.23
2023-03-02T21:58:49.910Z,100730.50
2023-03-02T22:01:17.752Z,100727.02
2023-03-02T22:03:45.811Z,100727.79
2023-03-02T22:06:18.589Z,100725.55
2023-03-02T22:08:46.583Z,100727.91
2023-03-02T22:11:24.088Z,100728.96
2023-03-02T22:13:55.293Z,100733.45
2023-03-02T22:16:25.543Z,100730.17
2023-03-02T22:18:58.539Z,100734.77
2023-03-02T22:21:43.849Z,100737.15
2023-03-02T22:24:12.887Z,100731.08
2023-03-02T22:26:46.091Z,100733.35
2023-03-02T22:29:38.769Z,100731.84
2023-03-02T22:32:18.261Z,100737.33
2023-03-02T22:34:48.409Z,100732.63
2023-03-02T22:37:21.822Z,100726.09
2023-03-02T22:39:50.840Z,100714.91
2023-03-02T22:42:20.961Z,100712.48
2023-03-02T22:45:14.631Z,100714.89
2023-03-02T22:47:44.035Z,100711.64
2023-03-02T22:50:21.985Z,100716.23
2023-03-02T22:52:49.948Z,100715.73
2023-03-02T22:55:43.999Z,100711.30
2023-03-02T22:58:40.314Z,100708.31
2023-03-02T23:01:42.648Z,100705.47
2023-03-02T23:04:26.911Z,100697.23
2023-03-02T23:06:57.008Z,100705.52
2023-03-02T23:09:31.006Z,100712.25
2023-03-02T23:12:02.494Z,100717.67
2023-03-02T23:14:38.296Z,100714.02
2023-03-02T23:17:13.076Z,100713.23
2023-03-02T23:19:41.334Z,100711.70
2023-03-02T23:22:09.684Z,100707.08
2023-03-02T23:24:37.493Z,100706.60
2023-03-02T23:27:05.684Z,100701.15
2023-03-02T23:29:33.475Z,100696.98
2023-03-02T23:32:02.377Z,100699.02
2023-03-02T23:34:33.009Z,100702.81
2023-03-02T23:37:00.738Z,100702.15
2023-03-02T23:39:28.665Z,100701.80
2023-03-02T23:41:56.527Z,100706.02
2023-03-02T23:44:24.469Z,100701.11
2023-03-02T23:46:52.483Z,100701.52
2023-03-02T23:49:20.259Z,100699.77
2023-03-02T23:51:48.698Z,100700.56
2023-03-02T23:54:17.557Z,100702.30
2023-03-02T23:56:45.368Z,100700.52
2023-03-02T23:59:13.297Z,100698.80
